sensor_id;sensor_type;location;lat;lon;timestamp;P1;durP1;ratioP1;P2;durP2;ratioP2
37280;SDS011;23169;41.804;12.596;2023-04-03T00:01:16;7.18;;;4.57;;
37280;SDS011;23169;41.804;12.596;2023-04-03T00:03:45;11.80;;;4.55;;
37280;SDS011;23169;41.804;12.596;2023-04-03T00:06:14;11.25;;;4.30;;
37280;SDS011;23169;41.804;12.596;2023-04-03T00:08:43;7.97;;;4.45;;
37280;SDS011;23169;41.804;12.596;2023-04-03T00:11:12;11.90;;;5.00;;
37280;SDS011;23169;41.804;12.596;2023-04-03T00:13:43;11.02;;;4.85;;
37280;SDS011;23169;41.804;12.596;2023-04-03T00:16:12;13.82;;;5.03;;
37280;SDS011;23169;41.804;12.596;2023-04-03T00:18:41;13.63;;;4.97;;
37280;SDS011;23169;41.804;12.596;2023-04-03T00:21:10;8.25;;;4.50;;
37280;SDS011;23169;41.804;12.596;2023-04-03T00:23:41;10.38;;;4.50;;
37280;SDS011;23169;41.804;12.596;2023-04-03T00:26:10;11.15;;;4.95;;
37280;SDS011;23169;41.804;12.596;2023-04-03T00:28:39;10.07;;;4.40;;
37280;SDS011;23169;41.804;12.596;2023-04-03T00:31:07;10.52;;;5.10;;
37280;SDS011;23169;41.804;12.596;2023-04-03T00:33:37;11.68;;;4.55;;
37280;SDS011;23169;41.804;12.596;2023-04-03T00:36:09;10.32;;;4.00;;
37280;SDS011;23169;41.804;12.596;2023-04-03T00:38:38;12.38;;;5.20;;
37280;SDS011;23169;41.804;12.596;2023-04-03T00:41:07;11.48;;;5.10;;
37280;SDS011;23169;41.804;12.596;2023-04-03T00:43:37;8.77;;;4.78;;
37280;SDS011;23169;41.804;12.596;2023-04-03T00:46:06;12.75;;;5.35;;
37280;SDS011;23169;41.804;12.596;2023-04-03T00:51:16;8.63;;;4.38;;
37280;SDS011;23169;41.804;12.596;2023-04-03T00:53:55;11.43;;;4.40;;
37280;SDS011;23169;41.804;12.596;2023-04-03T00:56:28;11.63;;;3.95;;
37280;SDS011;23169;41.804;12.596;2023-04-03T01:01:29;7.00;;;3.80;;
37280;SDS011;23169;41.804;12.596;2023-04-03T01:03:59;10.05;;;4.45;;
37280;SDS011;23169;41.804;12.596;2023-04-03T01:06:29;10.02;;;4.10;;
37280;SDS011;23169;41.804;12.596;2023-04-03T01:09:01;11.10;;;4.00;;
37280;SDS011;23169;41.804;12.596;2023-04-03T01:11:32;14.40;;;4.65;;
37280;SDS011;23169;41.804;12.596;2023-04-03T01:14:01;11.98;;;4.28;;
37280;SDS011;23169;41.804;12.596;2023-04-03T01:16:30;8.52;;;4.22;;
37280;SDS011;23169;41.804;12.596;2023-04-03T01:18:59;13.00;;;4.07;;
37280;SDS011;23169;41.804;12.596;2023-04-03T01:24:38;9.20;;;4.63;;
37280;SDS011;23169;41.804;12.596;2023-04-03T01:27:08;7.38;;;4.13;;
37280;SDS011;23169;41.804;12.596;2023-04-03T01:29:38;9.70;;;4.80;;
37280;SDS011;23169;41.804;12.596;2023-04-03T01:32:07;12.05;;;4.70;;
37280;SDS011;23169;41.804;12.596;2023-04-03T01:34:36;10.65;;;4.82;;
37280;SDS011;23169;41.804;12.596;2023-04-03T01:37:05;14.95;;;5.82;;
37280;SDS011;23169;41.804;12.596;2023-04-03T01:39:34;10.43;;;4.85;;
37280;SDS011;23169;41.804;12.596;2023-04-03T01:42:03;11.50;;;4.50;;
37280;SDS011;23169;41.804;12.596;2023-04-03T01:44:33;11.07;;;4.72;;
37280;SDS011;23169;41.804;12.596;2023-04-03T01:47:03;7.88;;;3.58;;
37280;SDS011;23169;41.804;12.596;2023-04-03T01:49:35;7.30;;;3.80;;
37280;SDS011;23169;41.804;12.596;2023-04-03T01:52:03;6.05;;;3.78;;
37280;SDS011;23169;41.804;12.596;2023-04-03T01:54:32;9.30;;;3.50;;
37280;SDS011;23169;41.804;12.596;2023-04-03T01:57:00;7.10;;;3.63;;
37280;SDS011;23169;41.804;12.596;2023-04-03T01:59:31;6.35;;;3.42;;
37280;SDS011;23169;41.804;12.596;2023-04-03T02:02:00;7.72;;;3.60;;
37280;SDS011;23169;41.804;12.596;2023-04-03T02:04:30;6.28;;;3.78;;
37280;SDS011;23169;41.804;12.596;2023-04-03T02:06:58;8.48;;;4.03;;
37280;SDS011;23169;41.804;12.596;2023-04-03T02:09:27;10.25;;;3.55;;
37280;SDS011;23169;41.804;12.596;2023-04-03T02:11:56;9.32;;;3.88;;
37280;SDS011;23169;41.804;12.596;2023-04-03T02:14:24;8.98;;;3.17;;
37280;SDS011;23169;41.804;12.596;2023-04-03T02:16:55;9.82;;;4.18;;
37280;SDS011;23169;41.804;12.596;2023-04-03T02:19:24;7.65;;;3.88;;
37280;SDS011;23169;41.804;12.596;2023-04-03T02:21:53;9.95;;;4.20;;
37280;SDS011;23169;41.804;12.596;2023-04-03T02:24:22;11.80;;;4.60;;
37280;SDS011;23169;41.804;12.596;2023-04-03T02:26:50;9.80;;;4.68;;
37280;SDS011;23169;41.804;12.596;2023-04-03T02:29:19;9.05;;;4.28;;
37280;SDS011;23169;41.804;12.596;2023-04-03T02:31:49;8.57;;;3.78;;
37280;SDS011;23169;41.804;12.596;2023-04-03T02:34:18;12.82;;;4.50;;
37280;SDS011;23169;41.804;12.596;2023-04-03T02:36:47;7.72;;;3.95;;
37280;SDS011;23169;41.804;12.596;2023-04-03T02:39:16;8.68;;;4.10;;
37280;SDS011;23169;41.804;12.596;2023-04-03T02:41:46;7.47;;;3.95;;
37280;SDS011;23169;41.804;12.596;2023-04-03T02:44:14;10.63;;;4.20;;
37280;SDS011;23169;41.804;12.596;2023-04-03T02:46:43;8.73;;;4.40;;
37280;SDS011;23169;41.804;12.596;2023-04-03T02:49:13;4.72;;;3.70;;
37280;SDS011;23169;41.804;12.596;2023-04-03T02:51:42;7.57;;;3.47;;
37280;SDS011;23169;41.804;12.596;2023-04-03T02:54:11;4.07;;;3.25;;
37280;SDS011;23169;41.804;12.596;2023-04-03T02:56:41;5.53;;;3.45;;
37280;SDS011;23169;41.804;12.596;2023-04-03T02:59:10;6.93;;;3.45;;
37280;SDS011;23169;41.804;12.596;2023-04-03T03:01:39;9.80;;;4.35;;
37280;SDS011;23169;41.804;12.596;2023-04-03T03:04:08;9.55;;;3.60;;
37280;SDS011;23169;41.804;12.596;2023-04-03T03:06:39;8.75;;;3.47;;
37280;SDS011;23169;41.804;12.596;2023-04-03T03:09:16;6.68;;;3.70;;
37280;SDS011;23169;41.804;12.596;2023-04-03T03:11:49;8.32;;;4.03;;
37280;SDS011;23169;41.804;12.596;2023-04-03T03:14:19;8.50;;;3.60;;
37280;SDS011;23169;41.804;12.596;2023-04-03T03:16:48;6.70;;;3.72;;
37280;SDS011;23169;41.804;12.596;2023-04-03T03:19:19;9.10;;;3.67;;
37280;SDS011;23169;41.804;12.596;2023-04-03T03:21:53;6.10;;;3.40;;
37280;SDS011;23169;41.804;12.596;2023-04-03T03:24:23;9.02;;;3.75;;
37280;SDS011;23169;41.804;12.596;2023-04-03T03:27:09;9.23;;;4.10;;
37280;SDS011;23169;41.804;12.596;2023-04-03T03:29:38;6.72;;;3.50;;
37280;SDS011;23169;41.804;12.596;2023-04-03T03:32:07;9.40;;;3.55;;
37280;SDS011;23169;41.804;12.596;2023-04-03T03:34:36;10.23;;;3.83;;
37280;SDS011;23169;41.804;12.596;2023-04-03T03:37:07;7.93;;;3.47;;
37280;SDS011;23169;41.804;12.596;2023-04-03T03:39:39;6.60;;;3.70;;
37280;SDS011;23169;41.804;12.596;2023-04-03T03:42:09;6.85;;;3.33;;
37280;SDS011;23169;41.804;12.596;2023-04-03T03:44:40;6.47;;;3.85;;
37280;SDS011;23169;41.804;12.596;2023-04-03T03:47:09;10.38;;;3.70;;
37280;SDS011;23169;41.804;12.596;2023-04-03T03:49:38;7.03;;;3.58;;
37280;SDS011;23169;41.804;12.596;2023-04-03T03:52:09;7.45;;;3.90;;
37280;SDS011;23169;41.804;12.596;2023-04-03T03:54:38;7.20;;;3.83;;
37280;SDS011;23169;41.804;12.596;2023-04-03T03:57:07;7.15;;;3.08;;
37280;SDS011;23169;41.804;12.596;2023-04-03T03:59:37;6.55;;;3.55;;
37280;SDS011;23169;41.804;12.596;2023-04-03T04:02:05;11.32;;;3.97;;
37280;SDS011;23169;41.804;12.596;2023-04-03T04:04:34;8.60;;;3.75;;
37280;SDS011;23169;41.804;12.596;2023-04-03T04:07:03;7.38;;;3.55;;
37280;SDS011;23169;41.804;12.596;2023-04-03T04:09:32;6.90;;;3.28;;
37280;SDS011;23169;41.804;12.596;2023-04-03T04:12:00;10.52;;;3.75;;
37280;SDS011;23169;41.804;12.596;2023-04-03T04:14:29;8.40;;;3.65;;
37280;SDS011;23169;41.804;12.596;2023-04-03T04:16:57;7.60;;;3.85;;
37280;SDS011;23169;41.804;12.596;2023-04-03T04:19:26;8.82;;;3.53;;
37280;SDS011;23169;41.804;12.596;2023-04-03T04:21:54;8.88;;;3.90;;
37280;SDS011;23169;41.804;12.596;2023-04-03T04:24:23;9.15;;;3.50;;
37280;SDS011;23169;41.804;12.596;2023-04-03T04:26:51;6.68;;;3.72;;
37280;SDS011;23169;41.804;12.596;2023-04-03T04:29:19;7.55;;;3.50;;
37280;SDS011;23169;41.804;12.596;2023-04-03T04:31:48;7.00;;;3.42;;
37280;SDS011;23169;41.804;12.596;2023-04-03T04:34:16;8.35;;;3.38;;
37280;SDS011;23169;41.804;12.596;2023-04-03T04:36:45;6.47;;;3.35;;
37280;SDS011;23169;41.804;12.596;2023-04-03T04:39:14;9.93;;;3.85;;
37280;SDS011;23169;41.804;12.596;2023-04-03T04:41:42;9.35;;;3.88;;
37280;SDS011;23169;41.804;12.596;2023-04-03T04:44:11;9.30;;;3.53;;
37280;SDS011;23169;41.804;12.596;2023-04-03T04:46:40;9.77;;;3.58;;
37280;SDS011;23169;41.804;12.596;2023-04-03T04:49:10;13.95;;;3.75;;
37280;SDS011;23169;41.804;12.596;2023-04-03T04:51:39;11.05;;;3.75;;
37280;SDS011;23169;41.804;12.596;2023-04-03T04:54:07;7.32;;;3.85;;
37280;SDS011;23169;41.804;12.596;2023-04-03T04:56:37;9.88;;;4.30;;
37280;SDS011;23169;41.804;12.596;2023-04-03T04:59:05;6.43;;;3.60;;
37280;SDS011;23169;41.804;12.596;2023-04-03T05:01:34;7.97;;;3.47;;
37280;SDS011;23169;41.804;12.596;2023-04-03T05:04:03;8.35;;;3.60;;
37280;SDS011;23169;41.804;12.596;2023-04-03T05:06:32;9.35;;;4.03;;
37280;SDS011;23169;41.804;12.596;2023-04-03T05:09:02;7.80;;;3.90;;
37280;SDS011;23169;41.804;12.596;2023-04-03T05:11:32;9.57;;;3.85;;
37280;SDS011;23169;41.804;12.596;2023-04-03T05:14:01;9.05;;;3.83;;
37280;SDS011;23169;41.804;12.596;2023-04-03T05:16:30;8.10;;;3.40;;
37280;SDS011;23169;41.804;12.596;2023-04-03T05:18:59;6.43;;;3.25;;
37280;SDS011;23169;41.804;12.596;2023-04-03T05:21:27;7.25;;;2.90;;
37280;SDS011;23169;41.804;12.596;2023-04-03T05:24:00;6.00;;;3.45;;
37280;SDS011;23169;41.804;12.596;2023-04-03T05:26:30;6.00;;;2.97;;
37280;SDS011;23169;41.804;12.596;2023-04-03T05:28:59;6.13;;;3.30;;
37280;SDS011;23169;41.804;12.596;2023-04-03T05:31:28;4.57;;;2.88;;
37280;SDS011;23169;41.804;12.596;2023-04-03T05:33:58;7.30;;;3.20;;
37280;SDS011;23169;41.804;12.596;2023-04-03T05:36:27;8.27;;;2.90;;
37280;SDS011;23169;41.804;12.596;2023-04-03T05:38:58;9.07;;;3.08;;
37280;SDS011;23169;41.804;12.596;2023-04-03T05:41:28;6.13;;;3.00;;
37280;SDS011;23169;41.804;12.596;2023-04-03T05:43:56;9.75;;;3.08;;
37280;SDS011;23169;41.804;12.596;2023-04-03T05:46:25;4.07;;;3.03;;
37280;SDS011;23169;41.804;12.596;2023-04-03T05:48:53;4.63;;;2.22;;
37280;SDS011;23169;41.804;12.596;2023-04-03T05:51:28;4.00;;;2.78;;
37280;SDS011;23169;41.804;12.596;2023-04-03T05:54:01;5.65;;;2.83;;
37280;SDS011;23169;41.804;12.596;2023-04-03T05:56:35;4.38;;;2.80;;
37280;SDS011;23169;41.804;12.596;2023-04-03T05:59:04;8.40;;;2.83;;
37280;SDS011;23169;41.804;12.596;2023-04-03T06:01:32;3.67;;;2.42;;
37280;SDS011;23169;41.804;12.596;2023-04-03T06:04:02;5.63;;;2.60;;
37280;SDS011;23169;41.804;12.596;2023-04-03T06:06:44;5.30;;;2.67;;
37280;SDS011;23169;41.804;12.596;2023-04-03T06:09:21;7.50;;;2.47;;
37280;SDS011;23169;41.804;12.596;2023-04-03T06:11:52;4.22;;;2.10;;
37280;SDS011;23169;41.804;12.596;2023-04-03T06:14:21;4.45;;;2.47;;
37280;SDS011;23169;41.804;12.596;2023-04-03T06:16:49;2.97;;;2.35;;
37280;SDS011;23169;41.804;12.596;2023-04-03T06:19:18;6.97;;;2.65;;
37280;SDS011;23169;41.804;12.596;2023-04-03T06:21:46;5.68;;;2.40;;
37280;SDS011;23169;41.804;12.596;2023-04-03T06:24:15;5.63;;;3.15;;
37280;SDS011;23169;41.804;12.596;2023-04-03T06:26:45;6.80;;;3.20;;
37280;SDS011;23169;41.804;12.596;2023-04-03T06:29:14;7.45;;;2.80;;
37280;SDS011;23169;41.804;12.596;2023-04-03T06:31:43;5.30;;;2.85;;
37280;SDS011;23169;41.804;12.596;2023-04-03T06:34:12;6.13;;;2.38;;
37280;SDS011;23169;41.804;12.596;2023-04-03T06:36:42;4.95;;;2.25;;
37280;SDS011;23169;41.804;12.596;2023-04-03T06:39:16;4.32;;;2.63;;
37280;SDS011;23169;41.804;12.596;2023-04-03T06:41:49;6.88;;;2.85;;
37280;SDS011;23169;41.804;12.596;2023-04-03T06:44:18;3.20;;;2.40;;
37280;SDS011;23169;41.804;12.596;2023-04-03T06:46:47;5.15;;;2.75;;
37280;SDS011;23169;41.804;12.596;2023-04-03T06:49:16;3.55;;;2.47;;
37280;SDS011;23169;41.804;12.596;2023-04-03T06:51:44;7.78;;;2.20;;
37280;SDS011;23169;41.804;12.596;2023-04-03T06:54:13;6.07;;;2.58;;
37280;SDS011;23169;41.804;12.596;2023-04-03T06:56:43;4.63;;;2.40;;
37280;SDS011;23169;41.804;12.596;2023-04-03T06:59:12;7.65;;;3.15;;
37280;SDS011;23169;41.804;12.596;2023-04-03T07:01:41;3.80;;;2.05;;
37280;SDS011;23169;41.804;12.596;2023-04-03T07:04:10;6.05;;;3.22;;
37280;SDS011;23169;41.804;12.596;2023-04-03T07:06:38;7.40;;;2.58;;
37280;SDS011;23169;41.804;12.596;2023-04-03T07:09:07;3.28;;;2.00;;
37280;SDS011;23169;41.804;12.596;2023-04-03T07:11:38;2.65;;;2.20;;
37280;SDS011;23169;41.804;12.596;2023-04-03T07:14:06;5.18;;;2.42;;
37280;SDS011;23169;41.804;12.596;2023-04-03T07:16:36;4.70;;;2.45;;
37280;SDS011;23169;41.804;12.596;2023-04-03T07:19:05;6.55;;;2.30;;
37280;SDS011;23169;41.804;12.596;2023-04-03T07:21:33;4.40;;;2.38;;
37280;SDS011;23169;41.804;12.596;2023-04-03T07:24:02;6.05;;;2.58;;
37280;SDS011;23169;41.804;12.596;2023-04-03T07:26:31;6.28;;;2.70;;
37280;SDS011;23169;41.804;12.596;2023-04-03T07:29:00;5.75;;;2.35;;
37280;SDS011;23169;41.804;12.596;2023-04-03T07:31:29;2.97;;;2.30;;
37280;SDS011;23169;41.804;12.596;2023-04-03T07:33:57;7.65;;;2.55;;
37280;SDS011;23169;41.804;12.596;2023-04-03T07:36:25;2.75;;;1.85;;
37280;SDS011;23169;41.804;12.596;2023-04-03T07:38:54;4.28;;;2.53;;
37280;SDS011;23169;41.804;12.596;2023-04-03T07:41:22;7.80;;;3.05;;
37280;SDS011;23169;41.804;12.596;2023-04-03T07:43:51;3.88;;;2.80;;
37280;SDS011;23169;41.804;12.596;2023-04-03T07:46:20;2.95;;;2.10;;
37280;SDS011;23169;41.804;12.596;2023-04-03T07:48:49;5.43;;;2.80;;
37280;SDS011;23169;41.804;12.596;2023-04-03T07:51:17;4.97;;;2.22;;
37280;SDS011;23169;41.804;12.596;2023-04-03T07:53:46;5.57;;;2.67;;
37280;SDS011;23169;41.804;12.596;2023-04-03T07:56:16;3.15;;;2.85;;
37280;SDS011;23169;41.804;12.596;2023-04-03T07:58:45;4.00;;;2.30;;
37280;SDS011;23169;41.804;12.596;2023-04-03T08:01:16;3.85;;;2.50;;
37280;SDS011;23169;41.804;12.596;2023-04-03T08:03:46;6.90;;;2.83;;
37280;SDS011;23169;41.804;12.596;2023-04-03T08:06:14;3.08;;;2.40;;
37280;SDS011;23169;41.804;12.596;2023-04-03T08:08:43;7.45;;;3.30;;
37280;SDS011;23169;41.804;12.596;2023-04-03T08:11:14;4.70;;;2.35;;
37280;SDS011;23169;41.804;12.596;2023-04-03T08:13:42;5.55;;;3.17;;
37280;SDS011;23169;41.804;12.596;2023-04-03T08:16:12;5.25;;;2.63;;
37280;SDS011;23169;41.804;12.596;2023-04-03T08:18:45;5.35;;;2.80;;
37280;SDS011;23169;41.804;12.596;2023-04-03T08:21:14;3.38;;;2.53;;
37280;SDS011;23169;41.804;12.596;2023-04-03T08:23:44;8.43;;;2.70;;
37280;SDS011;23169;41.804;12.596;2023-04-03T08:26:19;2.95;;;1.98;;
37280;SDS011;23169;41.804;12.596;2023-04-03T08:28:49;5.78;;;2.55;;
37280;SDS011;23169;41.804;12.596;2023-04-03T08:31:18;5.85;;;1.92;;
37280;SDS011;23169;41.804;12.596;2023-04-03T08:33:47;4.13;;;2.35;;
37280;SDS011;23169;41.804;12.596;2023-04-03T08:36:21;3.10;;;1.52;;
37280;SDS011;23169;41.804;12.596;2023-04-03T08:38:51;4.10;;;2.33;;
37280;SDS011;23169;41.804;12.596;2023-04-03T08:44:18;6.97;;;2.10;;
37280;SDS011;23169;41.804;12.596;2023-04-03T08:50:28;7.18;;;2.50;;
37280;SDS011;23169;41.804;12.596;2023-04-03T08:53:02;7.93;;;2.33;;
37280;SDS011;23169;41.804;12.596;2023-04-03T08:55:37;4.78;;;2.03;;
37280;SDS011;23169;41.804;12.596;2023-04-03T08:58:12;5.88;;;2.17;;
37280;SDS011;23169;41.804;12.596;2023-04-03T09:00:51;4.82;;;1.70;;
37280;SDS011;23169;41.804;12.596;2023-04-03T09:03:28;2.35;;;1.20;;
37280;SDS011;23169;41.804;12.596;2023-04-03T09:11:24;2.85;;;1.52;;
37280;SDS011;23169;41.804;12.596;2023-04-03T09:21:58;3.28;;;1.63;;
37280;SDS011;23169;41.804;12.596;2023-04-03T09:24:59;1.30;;;1.00;;
37280;SDS011;23169;41.804;12.596;2023-04-03T09:27:50;1.13;;;1.02;;
37280;SDS011;23169;41.804;12.596;2023-04-03T09:30:20;1.92;;;1.30;;
37280;SDS011;23169;41.804;12.596;2023-04-03T09:32:52;2.33;;;1.30;;
37280;SDS011;23169;41.804;12.596;2023-04-03T09:37:59;3.50;;;1.30;;
37280;SDS011;23169;41.804;12.596;2023-04-03T09:41:34;2.55;;;1.58;;
37280;SDS011;23169;41.804;12.596;2023-04-03T09:43:52;1.30;;;1.20;;
37280;SDS011;23169;41.804;12.596;2023-04-03T09:48:58;3.30;;;1.85;;
37280;SDS011;23169;41.804;12.596;2023-04-03T09:51:29;2.03;;;1.42;;
37280;SDS011;23169;41.804;12.596;2023-04-03T09:53:58;6.55;;;1.48;;
37280;SDS011;23169;41.804;12.596;2023-04-03T09:56:29;3.67;;;0.90;;
37280;SDS011;23169;41.804;12.596;2023-04-03T10:06:48;1.58;;;0.95;;
37280;SDS011;23169;41.804;12.596;2023-04-03T10:14:53;1.35;;;1.00;;
37280;SDS011;23169;41.804;12.596;2023-04-03T10:25:37;1.40;;;1.30;;
37280;SDS011;23169;41.804;12.596;2023-04-03T10:28:17;3.47;;;1.42;;
37280;SDS011;23169;41.804;12.596;2023-04-03T10:30:56;3.15;;;1.50;;
37280;SDS011;23169;41.804;12.596;2023-04-03T10:33:45;2.58;;;1.30;;
37280;SDS011;23169;41.804;12.596;2023-04-03T10:47:02;3.30;;;1.35;;
37280;SDS011;23169;41.804;12.596;2023-04-03T10:49:39;3.13;;;1.15;;
37280;SDS011;23169;41.804;12.596;2023-04-03T10:52:14;2.60;;;1.48;;
37280;SDS011;23169;41.804;12.596;2023-04-03T10:57:41;2.38;;;1.10;;
37280;SDS011;23169;41.804;12.596;2023-04-03T11:02:56;2.83;;;1.30;;
37280;SDS011;23169;41.804;12.596;2023-04-03T11:05:32;1.38;;;1.20;;
37280;SDS011;23169;41.804;12.596;2023-04-03T11:08:04;2.25;;;1.20;;
37280;SDS011;23169;41.804;12.596;2023-04-03T11:13:21;1.88;;;1.08;;
37280;SDS011;23169;41.804;12.596;2023-04-03T11:15:57;2.10;;;1.13;;
37280;SDS011;23169;41.804;12.596;2023-04-03T11:18:43;2.70;;;1.05;;
37280;SDS011;23169;41.804;12.596;2023-04-03T11:21:17;2.05;;;1.20;;
37280;SDS011;23169;41.804;12.596;2023-04-03T11:23:57;1.05;;;0.98;;
37280;SDS011;23169;41.804;12.596;2023-04-03T11:26:29;1.25;;;0.80;;
37280;SDS011;23169;41.804;12.596;2023-04-03T11:29:04;1.23;;;0.80;;
37280;SDS011;23169;41.804;12.596;2023-04-03T11:34:45;3.53;;;1.10;;
37280;SDS011;23169;41.804;12.596;2023-04-03T11:42:52;1.48;;;1.02;;
37280;SDS011;23169;41.804;12.596;2023-04-03T11:45:33;2.58;;;1.10;;
37280;SDS011;23169;41.804;12.596;2023-04-03T11:48:05;4.40;;;1.20;;
37280;SDS011;23169;41.804;12.596;2023-04-03T11:50:55;1.77;;;1.15;;
37280;SDS011;23169;41.804;12.596;2023-04-03T11:53:28;1.55;;;1.02;;
37280;SDS011;23169;41.804;12.596;2023-04-03T12:04:14;4.97;;;2.25;;
37280;SDS011;23169;41.804;12.596;2023-04-03T12:09:25;1.10;;;0.80;;
37280;SDS011;23169;41.804;12.596;2023-04-03T12:11:56;3.25;;;1.25;;
37280;SDS011;23169;41.804;12.596;2023-04-03T12:14:27;1.05;;;0.88;;
37280;SDS011;23169;41.804;12.596;2023-04-03T12:16:56;4.20;;;1.10;;
37280;SDS011;23169;41.804;12.596;2023-04-03T12:22:06;0.85;;;0.85;;
37280;SDS011;23169;41.804;12.596;2023-04-03T12:24:38;0.75;;;0.75;;
37280;SDS011;23169;41.804;12.596;2023-04-03T12:27:26;1.55;;;1.05;;
37280;SDS011;23169;41.804;12.596;2023-04-03T12:46:21;8.18;;;3.28;;
37280;SDS011;23169;41.804;12.596;2023-04-03T12:48:52;1.98;;;0.90;;
37280;SDS011;23169;41.804;12.596;2023-04-03T12:56:48;2.85;;;1.10;;
37280;SDS011;23169;41.804;12.596;2023-04-03T13:01:53;2.58;;;1.20;;
37280;SDS011;23169;41.804;12.596;2023-04-03T13:04:23;2.20;;;0.95;;
37280;SDS011;23169;41.804;12.596;2023-04-03T13:06:55;1.98;;;0.90;;
37280;SDS011;23169;41.804;12.596;2023-04-03T13:09:30;4.07;;;1.13;;
37280;SDS011;23169;41.804;12.596;2023-04-03T13:14:51;3.10;;;1.00;;
37280;SDS011;23169;41.804;12.596;2023-04-03T13:17:27;4.47;;;0.93;;
37280;SDS011;23169;41.804;12.596;2023-04-03T13:19:56;2.67;;;0.80;;
37280;SDS011;23169;41.804;12.596;2023-04-03T13:22:46;2.38;;;1.30;;
37280;SDS011;23169;41.804;12.596;2023-04-03T13:25:19;2.38;;;1.00;;
37280;SDS011;23169;41.804;12.596;2023-04-03T13:27:49;3.33;;;1.00;;
37280;SDS011;23169;41.804;12.596;2023-04-03T13:30:23;3.83;;;1.10;;
37280;SDS011;23169;41.804;12.596;2023-04-03T13:35:28;1.83;;;1.05;;
37280;SDS011;23169;41.804;12.596;2023-04-03T13:40:50;2.30;;;0.88;;
37280;SDS011;23169;41.804;12.596;2023-04-03T13:43:26;3.65;;;1.00;;
37280;SDS011;23169;41.804;12.596;2023-04-03T13:48:41;1.98;;;0.80;;
37280;SDS011;23169;41.804;12.596;2023-04-03T13:53:45;8.10;;;1.42;;
37280;SDS011;23169;41.804;12.596;2023-04-03T13:56:41;4.22;;;1.45;;
37280;SDS011;23169;41.804;12.596;2023-04-03T14:04:26;5.15;;;1.20;;
37280;SDS011;23169;41.804;12.596;2023-04-03T14:06:57;4.85;;;1.42;;
37280;SDS011;23169;41.804;12.596;2023-04-03T14:09:26;3.30;;;1.00;;
37280;SDS011;23169;41.804;12.596;2023-04-03T14:12:00;3.83;;;1.30;;
37280;SDS011;23169;41.804;12.596;2023-04-03T14:14:34;4.50;;;1.30;;
37280;SDS011;23169;41.804;12.596;2023-04-03T14:17:10;2.72;;;1.55;;
37280;SDS011;23169;41.804;12.596;2023-04-03T14:19:44;1.80;;;1.20;;
37280;SDS011;23169;41.804;12.596;2023-04-03T14:22:18;4.18;;;1.40;;
37280;SDS011;23169;41.804;12.596;2023-04-03T14:24:51;1.35;;;1.00;;
37280;SDS011;23169;41.804;12.596;2023-04-03T14:27:22;4.25;;;1.00;;
37280;SDS011;23169;41.804;12.596;2023-04-03T14:29:58;2.72;;;1.20;;
37280;SDS011;23169;41.804;12.596;2023-04-03T14:32:27;7.18;;;1.27;;
37280;SDS011;23169;41.804;12.596;2023-04-03T14:34:56;8.30;;;1.42;;
37280;SDS011;23169;41.804;12.596;2023-04-03T14:37:27;2.15;;;1.25;;
37280;SDS011;23169;41.804;12.596;2023-04-03T14:39:58;3.65;;;0.98;;
37280;SDS011;23169;41.804;12.596;2023-04-03T14:42:30;2.83;;;1.42;;
37280;SDS011;23169;41.804;12.596;2023-04-03T14:45:01;2.05;;;1.27;;
37280;SDS011;23169;41.804;12.596;2023-04-03T14:47:34;3.63;;;1.13;;
37280;SDS011;23169;41.804;12.596;2023-04-03T14:50:12;3.83;;;1.10;;
37280;SDS011;23169;41.804;12.596;2023-04-03T14:52:44;2.13;;;1.23;;
37280;SDS011;23169;41.804;12.596;2023-04-03T14:55:16;3.80;;;1.15;;
37280;SDS011;23169;41.804;12.596;2023-04-03T14:57:46;2.88;;;1.45;;
37280;SDS011;23169;41.804;12.596;2023-04-03T15:00:17;3.55;;;1.92;;
37280;SDS011;23169;41.804;12.596;2023-04-03T15:02:47;2.17;;;0.93;;
37280;SDS011;23169;41.804;12.596;2023-04-03T15:05:16;2.90;;;1.27;;
37280;SDS011;23169;41.804;12.596;2023-04-03T15:07:52;3.45;;;1.40;;
37280;SDS011;23169;41.804;12.596;2023-04-03T15:10:24;6.05;;;1.52;;
37280;SDS011;23169;41.804;12.596;2023-04-03T15:12:56;4.13;;;1.85;;
37280;SDS011;23169;41.804;12.596;2023-04-03T15:15:27;1.85;;;1.10;;
37280;SDS011;23169;41.804;12.596;2023-04-03T15:17:57;4.22;;;1.50;;
37280;SDS011;23169;41.804;12.596;2023-04-03T15:20:27;4.70;;;1.52;;
37280;SDS011;23169;41.804;12.596;2023-04-03T15:22:58;2.70;;;1.42;;
37280;SDS011;23169;41.804;12.596;2023-04-03T15:25:31;2.58;;;1.13;;
37280;SDS011;23169;41.804;12.596;2023-04-03T15:28:00;1.98;;;1.25;;
37280;SDS011;23169;41.804;12.596;2023-04-03T15:30:29;3.67;;;1.55;;
37280;SDS011;23169;41.804;12.596;2023-04-03T15:32:58;4.20;;;1.45;;
37280;SDS011;23169;41.804;12.596;2023-04-03T15:35:26;3.35;;;1.50;;
37280;SDS011;23169;41.804;12.596;2023-04-03T15:37:55;5.70;;;1.50;;
37280;SDS011;23169;41.804;12.596;2023-04-03T15:40:24;4.43;;;1.27;;
37280;SDS011;23169;41.804;12.596;2023-04-03T15:42:53;8.88;;;2.75;;
37280;SDS011;23169;41.804;12.596;2023-04-03T15:45:22;7.15;;;1.73;;
37280;SDS011;23169;41.804;12.596;2023-04-03T15:47:52;3.15;;;1.50;;
37280;SDS011;23169;41.804;12.596;2023-04-03T15:50:20;6.00;;;1.70;;
37280;SDS011;23169;41.804;12.596;2023-04-03T15:52:51;4.50;;;1.88;;
37280;SDS011;23169;41.804;12.596;2023-04-03T15:55:23;4.53;;;1.67;;
37280;SDS011;23169;41.804;12.596;2023-04-03T15:57:55;3.45;;;1.40;;
37280;SDS011;23169;41.804;12.596;2023-04-03T16:00:24;3.15;;;1.48;;
37280;SDS011;23169;41.804;12.596;2023-04-03T16:02:55;6.47;;;2.10;;
37280;SDS011;23169;41.804;12.596;2023-04-03T16:05:27;7.13;;;2.17;;
37280;SDS011;23169;41.804;12.596;2023-04-03T16:07:56;4.00;;;1.92;;
37280;SDS011;23169;41.804;12.596;2023-04-03T16:10:29;4.68;;;1.98;;
37280;SDS011;23169;41.804;12.596;2023-04-03T16:12:58;3.80;;;1.95;;
37280;SDS011;23169;41.804;12.596;2023-04-03T16:15:28;7.07;;;2.05;;
37280;SDS011;23169;41.804;12.596;2023-04-03T16:17:58;4.25;;;1.90;;
37280;SDS011;23169;41.804;12.596;2023-04-03T16:20:28;2.72;;;1.75;;
37280;SDS011;23169;41.804;12.596;2023-04-03T16:22:58;11.80;;;1.85;;
37280;SDS011;23169;41.804;12.596;2023-04-03T16:25:28;5.07;;;1.98;;
37280;SDS011;23169;41.804;12.596;2023-04-03T16:27:59;5.00;;;2.00;;
37280;SDS011;23169;41.804;12.596;2023-04-03T16:30:28;1.77;;;1.60;;
37280;SDS011;23169;41.804;12.596;2023-04-03T16:32:57;4.32;;;2.10;;
37280;SDS011;23169;41.804;12.596;2023-04-03T16:35:30;5.68;;;2.08;;
37280;SDS011;23169;41.804;12.596;2023-04-03T16:37:58;6.60;;;2.00;;
37280;SDS011;23169;41.804;12.596;2023-04-03T16:40:28;5.65;;;2.13;;
37280;SDS011;23169;41.804;12.596;2023-04-03T16:42:56;8.70;;;1.98;;
37280;SDS011;23169;41.804;12.596;2023-04-03T16:45:25;2.58;;;1.77;;
37280;SDS011;23169;41.804;12.596;2023-04-03T16:47:55;3.60;;;1.70;;
37280;SDS011;23169;41.804;12.596;2023-04-03T16:50:23;5.03;;;2.25;;
37280;SDS011;23169;41.804;12.596;2023-04-03T16:52:52;3.90;;;1.67;;
37280;SDS011;23169;41.804;12.596;2023-04-03T16:55:20;6.00;;;2.25;;
37280;SDS011;23169;41.804;12.596;2023-04-03T16:57:49;3.92;;;2.25;;
37280;SDS011;23169;41.804;12.596;2023-04-03T17:00:18;4.35;;;1.90;;
37280;SDS011;23169;41.804;12.596;2023-04-03T17:02:46;6.15;;;2.20;;
37280;SDS011;23169;41.804;12.596;2023-04-03T17:05:15;6.90;;;2.20;;
37280;SDS011;23169;41.804;12.596;2023-04-03T17:07:44;4.07;;;1.75;;
37280;SDS011;23169;41.804;12.596;2023-04-03T17:10:12;5.43;;;1.92;;
37280;SDS011;23169;41.804;12.596;2023-04-03T17:12:43;5.38;;;1.75;;
37280;SDS011;23169;41.804;12.596;2023-04-03T17:15:11;5.15;;;1.80;;